createdAt,value
2018-06-19T00:02:00.269Z,63.60
2018-06-19T00:04:27.216Z,63.70
2018-06-19T00:06:54.132Z,63.80
2018-06-19T00:09:21.087Z,63.80
2018-06-19T00:11:48.056Z,64.00
2018-06-19T00:14:14.969Z,64.30
2018-06-19T00:16:42.185Z,64.80
2018-06-19T00:19:09.141Z,65.20
2018-06-19T00:22:08.216Z,65.40
2018-06-19T00:24:36.012Z,65.60
2018-06-19T00:27:03.049Z,65.80
2018-06-19T00:31:57.029Z,66.30
2018-06-19T00:34:24.632Z,66.60
2018-06-19T00:36:51.546Z,66.50
2018-06-19T00:39:18.436Z,66.30
2018-06-19T00:41:45.373Z,65.90
2018-06-19T00:44:12.297Z,66.20
2018-06-19T00:46:40.555Z,66.40
2018-06-19T00:49:07.461Z,67.60
2018-06-19T00:51:35.011Z,67.50
2018-06-19T00:54:02.909Z,67.80
2018-06-19T00:56:36.008Z,67.00
2018-06-19T00:59:03.000Z,67.60
2018-06-19T01:01:29.940Z,67.40
2018-06-19T01:03:56.888Z,68.00
2018-06-19T01:06:23.794Z,68.20
2018-06-19T01:08:51.216Z,68.10
2018-06-19T01:11:18.222Z,68.50
2018-06-19T01:13:45.570Z,68.50
2018-06-19T01:16:13.159Z,68.50
2018-06-19T01:18:40.086Z,67.90
2018-06-19T01:21:07.605Z,68.30
2018-06-19T01:23:34.593Z,68.40
2018-06-19T01:26:01.576Z,69.40
2018-06-19T01:28:28.492Z,69.50
2018-06-19T01:30:56.054Z,70.60
2018-06-19T01:33:23.137Z,70.00
2018-06-19T01:35:50.922Z,69.40
2018-06-19T01:38:18.580Z,70.00
2018-06-19T01:40:45.677Z,70.10
2018-06-19T01:43:13.769Z,70.30
2018-06-19T01:45:40.685Z,69.90
2018-06-19T01:48:08.853Z,69.70
2018-06-19T01:50:36.463Z,69.60
2018-06-19T01:53:03.478Z,70.90
2018-06-19T01:55:31.198Z,70.50
2018-06-19T01:57:58.152Z,70.70
2018-06-19T02:00:25.294Z,70.60
2018-06-19T02:02:52.833Z,71.00
2018-06-19T02:05:19.969Z,70.80
2018-06-19T02:07:47.561Z,70.30
2018-06-19T02:10:14.501Z,71.20
2018-06-19T02:12:41.874Z,70.90
2018-06-19T02:15:09.424Z,70.60
2018-06-19T02:17:36.341Z,70.80
2018-06-19T02:20:03.790Z,71.00
2018-06-19T02:22:30.744Z,71.40
2018-06-19T02:24:57.693Z,71.70
2018-06-19T02:27:24.599Z,71.10
2018-06-19T02:29:52.716Z,71.50
2018-06-19T02:32:19.867Z,71.40
2018-06-19T02:34:46.808Z,71.70
2018-06-19T02:37:14.032Z,71.40
2018-06-19T02:42:07.889Z,71.00
2018-06-19T02:44:34.843Z,71.00
2018-06-19T02:47:01.768Z,71.30
2018-06-19T02:49:28.671Z,72.10
2018-06-19T02:51:55.595Z,71.40
2018-06-19T02:54:23.132Z,72.20
2018-06-19T02:56:50.070Z,72.10
2018-06-19T02:59:16.983Z,71.80
2018-06-19T03:01:43.913Z,72.30
2018-06-19T03:04:10.858Z,72.30
2018-06-19T03:06:38.023Z,72.60
2018-06-19T03:09:07.062Z,72.90
2018-06-19T03:11:34.575Z,73.60
2018-06-19T03:14:01.812Z,72.60
2018-06-19T03:16:29.704Z,73.20
2018-06-19T03:18:57.572Z,73.00
2018-06-19T03:21:24.484Z,72.90
2018-06-19T03:23:52.492Z,72.90
2018-06-19T03:26:19.482Z,73.00
2018-06-19T03:28:46.389Z,73.00
2018-06-19T03:31:13.324Z,73.30
2018-06-19T03:33:40.256Z,73.30
2018-06-19T03:36:07.176Z,73.40
2018-06-19T03:38:34.072Z,73.00
2018-06-19T03:41:01.507Z,73.30
2018-06-19T03:43:28.923Z,73.40
2018-06-19T03:45:55.925Z,73.50
2018-06-19T03:51:09.339Z,73.50
2018-06-19T03:53:36.282Z,74.00
2018-06-19T03:56:03.244Z,74.40
2018-06-19T03:58:30.424Z,74.70
2018-06-19T04:00:57.652Z,75.00
2018-06-19T04:03:24.596Z,74.70
2018-06-19T04:05:53.211Z,74.30
2018-06-19T04:08:20.219Z,74.80
2018-06-19T04:10:47.237Z,74.70
2018-06-19T04:13:14.289Z,73.40
2018-06-19T04:15:41.924Z,73.10
2018-06-19T04:18:09.139Z,72.10
2018-06-19T04:20:36.478Z,71.70
2018-06-19T04:23:03.408Z,70.90
2018-06-19T04:25:30.348Z,69.80
2018-06-19T04:27:57.245Z,70.10
2018-06-19T04:30:24.155Z,70.00
2018-06-19T04:32:51.077Z,70.20
2018-06-19T04:35:18.029Z,69.60
2018-06-19T04:37:44.963Z,69.20
2018-06-19T04:40:12.159Z,69.00
2018-06-19T04:42:39.103Z,69.60
2018-06-19T04:45:06.016Z,70.40
2018-06-19T04:47:32.995Z,70.50
2018-06-19T04:49:59.904Z,70.40
2018-06-19T04:52:26.828Z,69.80
2018-06-19T04:54:54.360Z,69.40
2018-06-19T04:57:21.327Z,67.60
2018-06-19T04:59:48.341Z,67.60
2018-06-19T05:02:15.247Z,68.40
2018-06-19T05:04:42.228Z,67.90
2018-06-19T05:07:09.125Z,67.10
2018-06-19T05:09:36.667Z,66.50
2018-06-19T05:12:03.591Z,66.00
2018-06-19T05:14:30.532Z,64.80
2018-06-19T05:16:57.466Z,64.80
2018-06-19T05:19:24.863Z,63.60
2018-06-19T05:21:51.772Z,63.10
2018-06-19T05:24:18.699Z,62.80
2018-06-19T05:26:46.502Z,61.90
2018-06-19T05:29:13.441Z,59.60
2018-06-19T05:31:40.403Z,60.00
2018-06-19T05:34:08.268Z,60.00
2018-06-19T05:36:35.203Z,59.20
2018-06-19T05:39:02.154Z,59.30
2018-06-19T05:41:29.323Z,58.20
2018-06-19T05:43:56.227Z,58.20
2018-06-19T05:46:23.360Z,57.80
2018-06-19T05:48:50.291Z,57.20
2018-06-19T05:51:17.217Z,56.30
2018-06-19T05:53:44.120Z,56.90
2018-06-19T05:56:11.015Z,57.50
2018-06-19T05:58:38.029Z,58.20
2018-06-19T06:01:04.940Z,58.10
2018-06-19T06:03:31.841Z,59.00
2018-06-19T06:05:58.787Z,58.30
2018-06-19T06:08:25.720Z,58.20
2018-06-19T06:10:52.625Z,57.80
2018-06-19T06:13:19.580Z,57.20
2018-06-19T06:18:14.641Z,57.60
2018-06-19T06:20:42.134Z,56.20
2018-06-19T06:23:09.069Z,56.50
2018-06-19T06:25:36.055Z,55.50
2018-06-19T06:28:03.195Z,55.00
2018-06-19T06:30:30.104Z,55.00
2018-06-19T06:32:57.581Z,55.90
2018-06-19T06:35:24.964Z,55.40
2018-06-19T06:37:51.883Z,55.10
2018-06-19T06:40:19.076Z,55.00
2018-06-19T06:42:45.980Z,55.20
2018-06-19T06:45:13.227Z,54.70
2018-06-19T06:47:40.197Z,53.70
2018-06-19T06:50:07.612Z,52.60
2018-06-19T06:52:34.542Z,52.10
2018-06-19T06:55:01.455Z,53.60
2018-06-19T06:57:28.528Z,53.00
2018-06-19T06:59:55.429Z,53.60
2018-06-19T07:02:22.365Z,52.30
2018-06-19T07:04:49.264Z,52.50
2018-06-19T07:07:16.768Z,52.80
2018-06-19T07:09:43.692Z,53.20
2018-06-19T07:12:11.038Z,53.00
2018-06-19T07:14:38.286Z,53.60
2018-06-19T07:17:05.300Z,53.60
2018-06-19T07:19:32.243Z,53.60
2018-06-19T07:21:59.197Z,54.10
2018-06-19T07:24:26.363Z,54.10
2018-06-19T07:26:53.311Z,53.30
2018-06-19T07:29:20.464Z,53.20
2018-06-19T07:31:48.185Z,53.40
2018-06-19T07:34:15.116Z,52.50
2018-06-19T07:36:42.062Z,52.10
2018-06-19T07:39:09.717Z,51.60
2018-06-19T07:44:03.682Z,52.60
2018-06-19T07:46:30.588Z,52.80
2018-06-19T07:48:58.233Z,53.40
2018-06-19T07:51:25.663Z,52.90
2018-06-19T07:53:52.816Z,53.40
2018-06-19T07:56:19.820Z,52.00
2018-06-19T07:58:46.753Z,51.20
2018-06-19T08:01:13.752Z,52.20
2018-06-19T08:03:40.692Z,52.50
2018-06-19T08:08:34.490Z,51.50
2018-06-19T08:11:01.428Z,52.50
2018-06-19T08:13:30.080Z,52.90
2018-06-19T08:15:57.004Z,53.60
2018-06-19T08:18:25.193Z,53.30
2018-06-19T08:20:52.707Z,53.30
2018-06-19T08:23:20.174Z,52.50
2018-06-19T08:25:48.688Z,51.50
2018-06-19T08:28:16.527Z,50.80
2018-06-19T08:30:43.619Z,51.20
2018-06-19T08:33:10.589Z,51.40
2018-06-19T08:35:37.522Z,51.90
2018-06-19T08:38:06.214Z,50.30
2018-06-19T08:40:33.822Z,50.40
2018-06-19T08:43:01.669Z,49.20
2018-06-19T08:45:28.572Z,49.80
2018-06-19T08:47:55.953Z,50.40
2018-06-19T08:50:23.205Z,48.90
2018-06-19T08:52:51.122Z,47.80
2018-06-19T08:55:18.381Z,46.70
2018-06-19T08:57:45.249Z,46.60
2018-06-19T09:00:12.201Z,46.10
2018-06-19T09:02:39.707Z,45.90
2018-06-19T09:05:06.688Z,46.10
2018-06-19T09:07:34.270Z,46.90
2018-06-19T09:10:01.851Z,46.60
2018-06-19T09:12:28.771Z,45.70
2018-06-19T09:14:55.692Z,46.60
2018-06-19T09:17:23.240Z,46.70
2018-06-19T09:19:50.174Z,47.60
2018-06-19T09:22:17.107Z,47.50
2018-06-19T09:24:44.020Z,46.50
2018-06-19T09:27:10.932Z,47.20
2018-06-19T09:29:38.416Z,47.10
2018-06-19T09:32:05.402Z,48.00
2018-06-19T09:34:32.619Z,47.40
2018-06-19T09:36:59.531Z,46.60
2018-06-19T09:39:27.205Z,47.30
2018-06-19T09:44:21.017Z,48.30
2018-06-19T09:46:47.933Z,48.00
2018-06-19T09:49:15.112Z,47.70
2018-06-19T09:51:42.669Z,47.60
2018-06-19T09:54:09.685Z,46.20
2018-06-19T09:56:36.657Z,46.70
2018-06-19T09:59:03.905Z,46.90
2018-06-19T10:01:31.409Z,47.30
2018-06-19T10:03:58.444Z,47.20
2018-06-19T10:06:26.538Z,47.20
2018-06-19T10:08:53.512Z,47.30
2018-06-19T10:11:20.465Z,47.20
2018-06-19T10:13:47.393Z,47.20
2018-06-19T10:18:41.252Z,48.20
2018-06-19T10:21:08.201Z,48.60
2018-06-19T10:23:36.089Z,49.00
2018-06-19T10:26:03.094Z,48.50
2018-06-19T10:28:30.651Z,49.30
2018-06-19T10:30:57.849Z,49.70
2018-06-19T10:33:24.800Z,49.90
2018-06-19T10:35:51.856Z,49.80
2018-06-19T10:38:18.779Z,50.50
2018-06-19T10:40:45.739Z,50.90
2018-06-19T10:43:12.681Z,51.10
2018-06-19T10:45:39.632Z,51.00
2018-06-19T10:48:06.695Z,51.10
2018-06-19T10:50:33.644Z,51.10
2018-06-19T10:53:00.762Z,51.20
2018-06-19T10:55:27.667Z,51.50
2018-06-19T10:57:54.588Z,51.40
2018-06-19T11:00:21.515Z,52.00
2018-06-19T11:02:48.457Z,51.60
2018-06-19T11:05:15.419Z,52.50
2018-06-19T11:07:42.340Z,51.90
2018-06-19T11:10:09.295Z,51.70
2018-06-19T11:12:36.259Z,51.40
2018-06-19T11:15:03.269Z,51.50
2018-06-19T11:19:57.143Z,51.60
2018-06-19T11:22:24.057Z,52.10
2018-06-19T11:24:51.063Z,51.90
2018-06-19T11:27:18.017Z,51.80
2018-06-19T11:29:44.964Z,51.10
2018-06-19T11:32:12.202Z,51.20
2018-06-19T11:34:39.313Z,50.60
2018-06-19T11:37:06.597Z,50.40
2018-06-19T11:39:33.529Z,51.10
2018-06-19T11:42:00.451Z,50.80
2018-06-19T11:44:27.424Z,50.90
2018-06-19T11:46:54.358Z,51.40
2018-06-19T11:49:21.330Z,51.40
2018-06-19T11:51:48.299Z,51.70
2018-06-19T11:54:15.242Z,51.40
2018-06-19T11:56:42.216Z,51.60
2018-06-19T11:59:09.148Z,51.90
2018-06-19T12:01:36.646Z,51.90
2018-06-19T12:04:03.553Z,51.20
2018-06-19T12:06:30.450Z,50.80
2018-06-19T12:11:24.809Z,50.70
2018-06-19T12:13:51.738Z,49.80
2018-06-19T12:16:18.641Z,49.70
2018-06-19T12:18:45.584Z,50.20
2018-06-19T12:21:13.365Z,50.00
2018-06-19T12:23:41.512Z,49.70
2018-06-19T12:26:10.082Z,50.10
2018-06-19T12:28:37.196Z,49.40
2018-06-19T12:31:04.388Z,49.80
2018-06-19T12:33:31.391Z,47.80
2018-06-19T12:35:58.322Z,49.70
2018-06-19T12:38:25.232Z,49.30
2018-06-19T12:40:52.164Z,48.90
2018-06-19T12:43:19.091Z,49.50
2018-06-19T12:45:45.990Z,49.20
2018-06-19T12:48:13.741Z,49.50
2018-06-19T12:50:46.320Z,48.00
2018-06-19T12:53:19.508Z,48.30
2018-06-19T12:55:52.395Z,49.10
2018-06-19T12:58:19.655Z,49.50
2018-06-19T13:00:46.969Z,49.40
2018-06-19T13:03:19.688Z,48.90
2018-06-19T13:05:52.541Z,47.70
2018-06-19T13:08:19.523Z,49.20
2018-06-19T13:10:46.446Z,48.80
2018-06-19T13:13:21.202Z,47.60
2018-06-19T13:15:49.113Z,47.80
2018-06-19T13:18:21.738Z,48.50
2018-06-19T13:20:49.657Z,48.20
2018-06-19T13:23:16.652Z,48.40
2018-06-19T13:25:43.979Z,48.00
2018-06-19T13:28:11.590Z,48.40
2018-06-19T13:30:44.091Z,48.20
2018-06-19T13:33:11.016Z,48.20
2018-06-19T13:35:37.964Z,47.40
2018-06-19T13:38:04.890Z,47.50
2018-06-19T13:41:08.448Z,48.40
2018-06-19T13:43:41.620Z,47.30
2018-06-19T13:46:09.689Z,47.00
2018-06-19T13:48:36.636Z,47.00
2018-06-19T13:51:03.601Z,48.00
2018-06-19T13:53:30.737Z,48.90
2018-06-19T13:56:04.570Z,48.50
2018-06-19T13:58:31.545Z,48.10
2018-06-19T14:00:58.457Z,47.20
2018-06-19T14:03:25.428Z,47.90
2018-06-19T14:05:52.361Z,48.30
2018-06-19T14:08:24.779Z,48.00
2018-06-19T14:10:57.329Z,48.40
2018-06-19T14:13:24.271Z,47.90
2018-06-19T14:15:51.320Z,49.00
2018-06-19T14:18:19.470Z,48.70
2018-06-19T14:20:46.423Z,49.10
2018-06-19T14:23:13.731Z,49.10
2018-06-19T14:25:40.710Z,48.50
2018-06-19T14:28:08.047Z,48.90
2018-06-19T14:30:35.096Z,49.50
2018-06-19T14:33:02.111Z,48.30
2018-06-19T14:35:29.018Z,48.20
2018-06-19T14:37:56.910Z,49.20
2018-06-19T14:40:23.862Z,49.80
2018-06-19T14:42:50.894Z,49.90
2018-06-19T14:45:19.075Z,48.70
2018-06-19T14:50:13.532Z,48.90
2018-06-19T14:52:40.433Z,48.70
2018-06-19T14:55:07.824Z,49.40
2018-06-19T14:57:34.723Z,49.00
2018-06-19T15:00:01.726Z,49.20
2018-06-19T15:02:28.722Z,48.50
2018-06-19T15:04:55.689Z,48.40
2018-06-19T15:07:42.268Z,47.70
2018-06-19T15:10:09.296Z,48.80
2018-06-19T15:12:36.477Z,47.70
2018-06-19T15:15:03.441Z,48.20
2018-06-19T15:17:30.421Z,48.20
2018-06-19T15:19:57.360Z,47.90
2018-06-19T15:22:24.284Z,48.40
2018-06-19T15:24:51.220Z,48.80
2018-06-19T15:27:18.178Z,48.90
2018-06-19T15:29:45.839Z,49.60
2018-06-19T15:32:12.800Z,49.50
2018-06-19T15:34:39.744Z,50.20
2018-06-19T15:37:06.653Z,50.10
2018-06-19T15:39:40.521Z,49.60
2018-06-19T15:42:07.682Z,49.60
2018-06-19T15:44:34.777Z,50.40
2018-06-19T15:47:02.170Z,50.20
2018-06-19T15:49:29.155Z,49.50
2018-06-19T15:51:56.069Z,50.20
2018-06-19T15:54:23.584Z,50.00
2018-06-19T15:56:50.540Z,49.90
2018-06-19T15:59:17.485Z,49.20
2018-06-19T16:01:44.445Z,49.20
2018-06-19T16:04:11.367Z,49.50
2018-06-19T16:06:38.874Z,49.50
2018-06-19T16:09:06.608Z,49.70
2018-06-19T16:11:33.660Z,49.90
2018-06-19T16:14:00.675Z,49.20
2018-06-19T16:16:27.634Z,49.00
2018-06-19T16:18:54.577Z,49.00
2018-06-19T16:21:21.548Z,49.00
2018-06-19T16:23:48.476Z,49.70
2018-06-19T16:26:15.444Z,49.30
2018-06-19T16:28:42.366Z,49.30
2018-06-19T16:31:09.305Z,49.90
2018-06-19T16:33:36.259Z,49.80
2018-06-19T16:36:03.961Z,49.60
2018-06-19T16:38:30.857Z,49.70
2018-06-19T16:40:57.799Z,49.30
2018-06-19T16:43:25.364Z,49.20
2018-06-19T16:45:52.310Z,49.40
2018-06-19T16:48:19.305Z,49.80
2018-06-19T16:50:46.274Z,49.70
2018-06-19T16:53:13.594Z,49.80
2018-06-19T16:55:40.865Z,49.60
2018-06-19T16:58:08.914Z,49.00
2018-06-19T17:00:35.842Z,49.50
2018-06-19T17:03:02.829Z,49.30
2018-06-19T17:05:30.432Z,49.00
2018-06-19T17:07:57.385Z,49.40
2018-06-19T17:10:24.544Z,49.80
2018-06-19T17:12:52.422Z,49.60
2018-06-19T17:15:19.935Z,49.40
2018-06-19T17:17:47.381Z,49.40
2018-06-19T17:20:14.324Z,49.50
2018-06-19T17:22:41.232Z,49.60
2018-06-19T17:25:08.398Z,49.70
2018-06-19T17:27:35.334Z,49.90
2018-06-19T17:30:02.597Z,50.00
2018-06-19T17:32:30.161Z,50.10
2018-06-19T17:34:58.082Z,50.20
2018-06-19T17:37:25.082Z,50.50
2018-06-19T17:39:52.192Z,50.50
2018-06-19T17:42:19.124Z,50.20
2018-06-19T17:44:46.139Z,51.80
2018-06-19T17:47:13.074Z,51.40
2018-06-19T17:49:40.001Z,51.30
2018-06-19T17:52:06.943Z,51.60
2018-06-19T17:54:33.852Z,51.70
2018-06-19T17:57:00.761Z,51.30
2018-06-19T17:59:27.656Z,51.30
2018-06-19T18:01:54.653Z,51.10
2018-06-19T18:04:21.989Z,51.20
2018-06-19T18:06:49.001Z,50.80
2018-06-19T18:09:16.562Z,50.90
2018-06-19T18:11:43.456Z,51.30
2018-06-19T18:14:10.416Z,51.40
2018-06-19T18:16:37.356Z,52.10
2018-06-19T18:19:04.324Z,51.60
2018-06-19T18:21:31.305Z,52.10
2018-06-19T18:23:58.942Z,51.90
2018-06-19T18:26:26.867Z,52.50
2018-06-19T18:28:53.792Z,52.30
2018-06-19T18:31:20.744Z,52.70
2018-06-19T18:33:47.652Z,53.00
2018-06-19T18:36:14.581Z,52.90
2018-06-19T18:38:41.496Z,53.20
2018-06-19T18:41:08.458Z,53.20
2018-06-19T18:43:35.380Z,53.30
2018-06-19T18:46:02.323Z,53.50
2018-06-19T18:48:29.296Z,54.20
2018-06-19T18:50:56.563Z,54.00
2018-06-19T18:53:23.834Z,54.20
2018-06-19T18:55:50.749Z,55.40
2018-06-19T18:58:18.055Z,55.10
2018-06-19T19:00:45.027Z,55.60
2018-06-19T19:03:11.984Z,55.40
2018-06-19T19:05:39.009Z,55.50
2018-06-19T19:08:06.063Z,55.90
2018-06-19T19:10:38.801Z,56.00
2018-06-19T19:13:05.933Z,55.90
2018-06-19T19:15:38.700Z,55.70
2018-06-19T19:18:11.360Z,56.00
2018-06-19T19:20:38.435Z,56.80
2018-06-19T19:23:05.467Z,57.10
2018-06-19T19:25:32.639Z,57.00
2018-06-19T19:30:32.384Z,57.30
2018-06-19T19:32:59.442Z,57.10
2018-06-19T19:35:26.501Z,57.30
2018-06-19T19:37:59.133Z,57.70
2018-06-19T19:40:26.088Z,57.90
2018-06-19T19:42:53.061Z,58.10
2018-06-19T19:45:20.018Z,58.20
2018-06-19T19:47:53.264Z,58.10
2018-06-19T19:50:20.551Z,58.30
2018-06-19T19:52:47.556Z,58.80
2018-06-19T19:55:14.482Z,58.70
2018-06-19T19:57:47.215Z,58.60
2018-06-19T20:00:18.215Z,58.70
2018-06-19T20:02:45.153Z,58.80
2018-06-19T20:05:12.088Z,58.70
2018-06-19T20:07:39.505Z,59.80
2018-06-19T20:10:06.514Z,59.30
2018-06-19T20:12:33.445Z,59.20
2018-06-19T20:15:00.416Z,59.40
2018-06-19T20:17:27.409Z,59.60
2018-06-19T20:19:54.376Z,59.60
2018-06-19T20:22:21.276Z,59.70
2018-06-19T20:24:48.326Z,60.20
2018-06-19T20:27:15.268Z,60.20
2018-06-19T20:29:42.248Z,60.40
2018-06-19T20:32:09.948Z,60.40
2018-06-19T20:34:36.866Z,60.70
2018-06-19T20:37:03.793Z,61.00
2018-06-19T20:39:30.749Z,60.60
2018-06-19T20:41:57.888Z,60.60
2018-06-19T20:44:24.833Z,60.80
2018-06-19T20:46:51.752Z,60.60
2018-06-19T20:49:18.720Z,61.20
2018-06-19T20:51:45.904Z,61.50
2018-06-19T20:54:12.821Z,61.50
2018-06-19T20:56:39.744Z,62.30
2018-06-19T20:59:06.644Z,61.20
2018-06-19T21:01:33.643Z,61.60
2018-06-19T21:04:00.572Z,60.90
2018-06-19T21:06:27.757Z,61.60
2018-06-19T21:08:54.669Z,61.60
2018-06-19T21:11:21.605Z,61.40
2018-06-19T21:13:48.511Z,61.90
2018-06-19T21:16:15.748Z,61.70
2018-06-19T21:18:42.668Z,62.00
2018-06-19T21:21:09.669Z,61.70
2018-06-19T21:23:36.775Z,61.80
2018-06-19T21:26:03.748Z,62.30
2018-06-19T21:28:30.757Z,62.20
2018-06-19T21:30:57.918Z,62.10
2018-06-19T21:33:25.209Z,62.60
2018-06-19T21:35:52.132Z,62.50
2018-06-19T21:38:19.025Z,62.30
2018-06-19T21:40:45.973Z,62.20
2018-06-19T21:43:12.885Z,62.50
2018-06-19T21:45:39.860Z,63.10
2018-06-19T21:48:06.771Z,63.60
2018-06-19T21:50:33.974Z,63.50
2018-06-19T21:53:00.965Z,64.10
2018-06-19T21:57:54.839Z,64.50
2018-06-19T22:00:21.768Z,64.50
2018-06-19T22:02:49.429Z,64.60
2018-06-19T22:05:16.388Z,65.10
2018-06-19T22:07:43.320Z,65.10
2018-06-19T22:10:10.252Z,65.60
2018-06-19T22:12:37.193Z,65.70
2018-06-19T22:15:04.171Z,65.80
2018-06-19T22:19:57.944Z,65.80
2018-06-19T22:22:24.848Z,66.40
2018-06-19T22:24:51.800Z,66.30
2018-06-19T22:27:18.759Z,66.40
2018-06-19T22:29:45.686Z,66.40
2018-06-19T22:32:12.591Z,66.80
2018-06-19T22:34:39.521Z,67.00
2018-06-19T22:37:06.421Z,67.30
2018-06-19T22:39:33.603Z,67.00
2018-06-19T22:42:00.551Z,67.10
2018-06-19T22:44:27.496Z,67.10
2018-06-19T22:46:54.508Z,67.00
2018-06-19T22:49:21.459Z,66.90
2018-06-19T22:51:48.440Z,66.80
2018-06-19T22:54:15.516Z,67.20
2018-06-19T22:56:42.463Z,67.60
2018-06-19T22:59:09.353Z,67.20
2018-06-19T23:01:36.257Z,67.20
2018-06-19T23:04:03.187Z,67.10
2018-06-19T23:06:30.116Z,67.10
2018-06-19T23:08:57.735Z,67.60
2018-06-19T23:11:24.690Z,67.40
2018-06-19T23:13:51.611Z,67.10
2018-06-19T23:16:18.525Z,67.60
2018-06-19T23:18:45.963Z,67.40
2018-06-19T23:21:12.902Z,68.10
2018-06-19T23:23:39.825Z,68.50
2018-06-19T23:26:06.753Z,68.60
2018-06-19T23:28:33.662Z,67.80
2018-06-19T23:31:00.632Z,68.20
2018-06-19T23:33:27.539Z,68.60
2018-06-19T23:35:54.431Z,68.70
2018-06-19T23:38:21.379Z,68.80
2018-06-19T23:40:48.870Z,69.20
2018-06-19T23:43:15.773Z,68.60
2018-06-19T23:45:42.696Z,69.10
2018-06-19T23:48:09.604Z,68.70
2018-06-19T23:50:36.506Z,68.70
2018-06-19T23:53:04.067Z,69.10
2018-06-19T23:55:31.969Z,69.30
2018-06-19T23:57:58.901Z,69.30
